Time;durP1;ratioP1;P1;durP2;ratioP2;P2;SDS_P1;SDS_P2;PMS_P1;PMS_P2;Temp;Humidity;BMP_temperature;BMP_pressure;BME280_temperature;BME280_humidity;BME280_pressure;Samples;Min_cycle;Max_cycle;Signal;HPM_P1;HPM_P2
2021/09/02 00:01:23;;;;;;;16.80;7.70;;;;;;;;;;4942871;28;20580;-74
2021/09/02 00:03:50;;;;;;;13.37;6.20;;;;;;;;;;4939183;28;20233;-75
2021/09/02 00:06:18;;;;;;;15.80;6.97;;;;;;;;;;4936993;28;20217;-74
2021/09/02 00:08:45;;;;;;;15.77;7.20;;;;;;;;;;4937563;28;20294;-75
2021/09/02 00:11:13;;;;;;;22.47;6.70;;;;;;;;;;4941464;28;20588;-74
2021/09/02 00:13:40;;;;;;;11.87;6.40;;;;;;;;;;4943045;28;20241;-74
2021/09/02 00:16:07;;;;;;;12.70;6.50;;;;;;;;;;4939634;28;20676;-74
2021/09/02 00:18:35;;;;;;;18.67;7.50;;;;;;;;;;4940320;28;20657;-74
2021/09/02 00:21:02;;;;;;;14.37;6.80;;;;;;;;;;4936203;28;20210;-74
2021/09/02 00:23:29;;;;;;;11.50;6.40;;;;;;;;;;4942428;28;20230;-75
2021/09/02 00:25:56;;;;;;;16.03;6.67;;;;;;;;;;4940519;28;20213;-75
2021/09/02 00:28:25;;;;;;;12.67;7.10;;;;;;;;;;4943382;28;20217;-75
2021/09/02 00:30:52;;;;;;;19.67;7.20;;;;;;;;;;4943489;28;20207;-75
2021/09/02 00:33:20;;;;;;;12.77;6.40;;;;;;;;;;4938252;28;20305;-74
2021/09/02 00:35:47;;;;;;;12.30;6.43;;;;;;;;;;4941320;28;20214;-74
2021/09/02 00:38:14;;;;;;;16.87;7.40;;;;;;;;;;4939668;28;20205;-74
2021/09/02 00:40:42;;;;;;;15.47;6.63;;;;;;;;;;4940057;28;20654;-74
2021/09/02 00:43:09;;;;;;;13.03;6.10;;;;;;;;;;4944378;28;20230;-74
2021/09/02 00:45:37;;;;;;;13.17;6.53;;;;;;;;;;4943529;28;20593;-75
2021/09/02 00:48:05;;;;;;;13.47;7.03;;;;;;;;;;4938691;28;20207;-74
2021/09/02 00:50:32;;;;;;;11.50;6.20;;;;;;;;;;4941409;28;20209;-75
2021/09/02 00:52:59;;;;;;;16.50;7.20;;;;;;;;;;4940079;28;20199;-75
2021/09/02 00:55:26;;;;;;;12.37;6.53;;;;;;;;;;4940193;28;20736;-74
2021/09/02 00:57:54;;;;;;;18.30;6.80;;;;;;;;;;4935954;28;20677;-74
2021/09/02 01:00:21;;;;;;;12.40;6.53;;;;;;;;;;4941597;28;20221;-75
2021/09/02 01:02:49;;;;;;;15.63;6.57;;;;;;;;;;4939742;28;20227;-75
2021/09/02 01:05:17;;;;;;;14.30;6.47;;;;;;;;;;4937830;28;20254;-75
2021/09/02 01:07:44;;;;;;;12.93;6.40;;;;;;;;;;4932352;28;20203;-75
2021/09/02 01:10:12;;;;;;;14.43;6.47;;;;;;;;;;4934903;28;20289;-74
2021/09/02 01:12:40;;;;;;;13.93;6.60;;;;;;;;;;4940814;28;20211;-74
2021/09/02 01:15:10;;;;;;;19.87;7.33;;;;;;;;;;4937731;28;20234;-74
2021/09/02 01:17:37;;;;;;;14.47;7.13;;;;;;;;;;4944270;28;20207;-74
2021/09/02 01:20:07;;;;;;;17.03;7.27;;;;;;;;;;4936835;28;20651;-75
2021/09/02 01:22:35;;;;;;;19.07;7.47;;;;;;;;;;4938869;28;20226;-74
2021/09/02 01:25:05;;;;;;;15.37;7.07;;;;;;;;;;4936728;28;20341;-75
2021/09/02 01:27:32;;;;;;;15.17;7.10;;;;;;;;;;4931918;28;20214;-74
2021/09/02 01:30:00;;;;;;;13.20;6.37;;;;;;;;;;4932425;28;20298;-74
2021/09/02 01:32:28;;;;;;;13.87;6.63;;;;;;;;;;4937091;28;20289;-74
2021/09/02 01:34:55;;;;;;;12.37;6.43;;;;;;;;;;4939271;28;20229;-74
2021/09/02 01:37:23;;;;;;;14.83;6.00;;;;;;;;;;4933000;28;20289;-75
2021/09/02 01:39:50;;;;;;;17.57;6.77;;;;;;;;;;4932636;28;20294;-74
2021/09/02 01:42:19;;;;;;;10.27;5.90;;;;;;;;;;4931895;28;20833;-75
2021/09/02 01:44:46;;;;;;;15.80;6.30;;;;;;;;;;4932471;28;20227;-74
2021/09/02 01:47:20;;;;;;;11.77;6.70;;;;;;;;;;4931819;28;20221;-74
2021/09/02 01:49:47;;;;;;;10.40;6.07;;;;;;;;;;4931824;28;20207;-75
2021/09/02 01:52:15;;;;;;;13.17;6.30;;;;;;;;;;4930762;28;20225;-74
2021/09/02 01:54:42;;;;;;;14.83;6.53;;;;;;;;;;4934742;28;20246;-74
2021/09/02 01:57:09;;;;;;;11.70;6.13;;;;;;;;;;4936038;28;20217;-74
2021/09/02 01:59:38;;;;;;;16.07;6.50;;;;;;;;;;4939314;28;20586;-74
2021/09/02 02:02:06;;;;;;;14.10;6.87;;;;;;;;;;4941383;28;20207;-75
2021/09/02 02:04:33;;;;;;;11.90;7.00;;;;;;;;;;4948052;28;20227;-74
2021/09/02 02:07:00;;;;;;;12.87;6.80;;;;;;;;;;4939299;28;20297;-75
2021/09/02 02:09:27;;;;;;;15.80;7.10;;;;;;;;;;4939439;28;20981;-75
2021/09/02 02:11:54;;;;;;;17.93;7.20;;;;;;;;;;4934781;28;20572;-75
2021/09/02 02:14:21;;;;;;;15.00;6.80;;;;;;;;;;4935688;28;20211;-75
2021/09/02 02:16:50;;;;;;;12.97;7.10;;;;;;;;;;4935589;28;20687;-75
2021/09/02 02:19:17;;;;;;;17.00;7.33;;;;;;;;;;4936929;28;20710;-76
2021/09/02 02:21:44;;;;;;;16.13;7.03;;;;;;;;;;4935336;28;20203;-75
2021/09/02 02:24:12;;;;;;;16.73;6.90;;;;;;;;;;4934451;28;20238;-75
2021/09/02 02:26:39;;;;;;;13.70;6.77;;;;;;;;;;4935312;28;20202;-76
2021/09/02 02:29:06;;;;;;;17.77;6.47;;;;;;;;;;4935467;28;20207;-75
2021/09/02 02:31:34;;;;;;;17.43;7.07;;;;;;;;;;4937813;28;20217;-75
2021/09/02 02:34:02;;;;;;;13.50;7.40;;;;;;;;;;4939666;28;20222;-76
2021/09/02 02:36:29;;;;;;;16.63;7.53;;;;;;;;;;4936155;28;20923;-76
2021/09/02 02:38:57;;;;;;;15.57;6.87;;;;;;;;;;4932690;28;20198;-76
2021/09/02 02:41:24;;;;;;;13.80;7.50;;;;;;;;;;4936175;28;20305;-76
2021/09/02 02:43:51;;;;;;;15.00;7.13;;;;;;;;;;4932981;28;20235;-76
2021/09/02 02:46:18;;;;;;;12.67;6.27;;;;;;;;;;4936006;28;20201;-76
2021/09/02 02:48:46;;;;;;;14.33;6.87;;;;;;;;;;4934006;28;20653;-76
2021/09/02 02:51:14;;;;;;;14.53;6.53;;;;;;;;;;4937136;28;20207;-76
2021/09/02 02:53:41;;;;;;;12.10;6.33;;;;;;;;;;4937109;28;20231;-76
2021/09/02 02:56:18;;;;;;;18.50;7.50;;;;;;;;;;4947610;23;20207;-83
2021/09/02 02:59:07;;;;;;;16.97;6.90;;;;;;;;;;4978226;28;20560;-83
2021/09/02 03:01:34;;;;;;;18.63;6.40;;;;;;;;;;4982179;28;20295;-83
2021/09/02 03:04:01;;;;;;;13.40;6.20;;;;;;;;;;4981252;28;20321;-83
2021/09/02 03:09:33;;;;;;;16.03;6.70;;;;;;;;;;4983254;28;20228;-83
2021/09/02 03:12:00;;;;;;;16.67;6.83;;;;;;;;;;4982128;28;20264;-80
2021/09/02 03:14:27;;;;;;;20.23;7.13;;;;;;;;;;4980885;28;20288;-81
2021/09/02 03:16:55;;;;;;;13.73;6.00;;;;;;;;;;4984906;28;20773;-81
2021/09/02 03:19:22;;;;;;;13.37;6.10;;;;;;;;;;4984609;28;20261;-81
2021/09/02 03:21:49;;;;;;;17.40;6.60;;;;;;;;;;4988920;28;20276;-80
2021/09/02 03:24:16;;;;;;;13.17;6.40;;;;;;;;;;4993135;28;20289;-80
2021/09/02 03:26:45;;;;;;;12.77;6.70;;;;;;;;;;4992808;28;20244;-80
2021/09/02 03:29:12;;;;;;;20.37;6.60;;;;;;;;;;4982553;28;20547;-81
2021/09/02 03:31:39;;;;;;;15.80;6.30;;;;;;;;;;4979108;28;20265;-82
2021/09/02 03:34:06;;;;;;;12.63;6.57;;;;;;;;;;4979658;28;20205;-82
2021/09/02 03:36:33;;;;;;;13.00;6.40;;;;;;;;;;4979555;28;20219;-82
2021/09/02 03:39:00;;;;;;;16.50;6.60;;;;;;;;;;4977453;28;20317;-81
2021/09/02 03:41:28;;;;;;;13.43;5.83;;;;;;;;;;4981667;28;20284;-82
2021/09/02 03:43:56;;;;;;;11.77;6.00;;;;;;;;;;4981339;28;20234;-83
2021/09/02 03:46:23;;;;;;;9.93;6.07;;;;;;;;;;4981685;28;20259;-83
2021/09/02 03:48:51;;;;;;;14.47;6.80;;;;;;;;;;4982315;28;20239;-83
2021/09/02 03:51:18;;;;;;;17.23;6.00;;;;;;;;;;4987229;28;20236;-82
2021/09/02 03:53:45;;;;;;;13.13;6.73;;;;;;;;;;4987645;28;20271;-83
2021/09/02 03:56:12;;;;;;;12.10;6.10;;;;;;;;;;4985118;28;20248;-84
2021/09/02 03:58:39;;;;;;;11.77;6.30;;;;;;;;;;4984167;28;20691;-83
2021/09/02 04:01:08;;;;;;;18.27;6.33;;;;;;;;;;4983009;28;20214;-84
2021/09/02 04:03:35;;;;;;;12.10;6.03;;;;;;;;;;4983388;28;20221;-83
2021/09/02 04:06:02;;;;;;;14.00;6.00;;;;;;;;;;4979618;28;20237;-83
2021/09/02 04:08:29;;;;;;;16.80;6.40;;;;;;;;;;4983747;28;20304;-82
2021/09/02 04:10:57;;;;;;;13.90;6.30;;;;;;;;;;4978737;28;20638;-82
2021/09/02 04:13:24;;;;;;;14.97;6.50;;;;;;;;;;4971587;28;20233;-82
2021/09/02 04:15:51;;;;;;;14.40;6.33;;;;;;;;;;4978203;28;20299;-82
2021/09/02 04:18:20;;;;;;;16.60;7.20;;;;;;;;;;4981212;28;20224;-82
2021/09/02 04:20:47;;;;;;;15.13;6.67;;;;;;;;;;4979273;28;20209;-82
2021/09/02 04:23:14;;;;;;;12.57;6.67;;;;;;;;;;4981470;28;20240;-82
2021/09/02 04:25:41;;;;;;;13.33;6.80;;;;;;;;;;4970140;28;20297;-82
2021/09/02 04:28:08;;;;;;;13.97;6.47;;;;;;;;;;4976418;28;20360;-82
2021/09/02 04:30:35;;;;;;;12.80;6.33;;;;;;;;;;4980380;28;20243;-82
2021/09/02 04:33:03;;;;;;;12.63;6.37;;;;;;;;;;4983085;28;20618;-82
2021/09/02 04:35:31;;;;;;;16.03;6.40;;;;;;;;;;4985980;28;20309;-82
2021/09/02 04:37:58;;;;;;;19.30;7.40;;;;;;;;;;4979308;28;20260;-82
2021/09/02 04:40:26;;;;;;;17.77;6.40;;;;;;;;;;4973211;28;20300;-82
2021/09/02 04:42:53;;;;;;;19.33;6.20;;;;;;;;;;4972783;28;20297;-82
2021/09/02 04:45:20;;;;;;;11.37;6.37;;;;;;;;;;4978038;28;20224;-82
2021/09/02 04:47:50;;;;;;;12.17;6.53;;;;;;;;;;4973669;28;20641;-82
2021/09/02 04:50:17;;;;;;;17.33;7.17;;;;;;;;;;4973931;28;20221;-82
2021/09/02 04:52:45;;;;;;;16.87;7.00;;;;;;;;;;4974936;28;20292;-82
2021/09/02 04:55:13;;;;;;;14.43;6.20;;;;;;;;;;4975405;28;20325;-82
2021/09/02 04:57:40;;;;;;;14.20;6.37;;;;;;;;;;4971742;28;20241;-82
2021/09/02 05:00:08;;;;;;;13.43;7.00;;;;;;;;;;4981212;28;20269;-82
2021/09/02 05:02:36;;;;;;;16.43;7.00;;;;;;;;;;4980764;28;20288;-82
2021/09/02 05:05:03;;;;;;;13.73;6.83;;;;;;;;;;4985443;28;20241;-82
2021/09/02 05:07:30;;;;;;;15.47;6.93;;;;;;;;;;4989785;28;20253;-82
2021/09/02 05:09:59;;;;;;;18.13;7.00;;;;;;;;;;4994322;28;20228;-82
2021/09/02 05:12:26;;;;;;;18.33;7.03;;;;;;;;;;4980111;28;20229;-82
2021/09/02 05:14:53;;;;;;;14.23;6.63;;;;;;;;;;4968186;28;20232;-82
2021/09/02 05:17:20;;;;;;;14.43;6.97;;;;;;;;;;4979586;28;20293;-82
2021/09/02 05:19:47;;;;;;;15.37;6.20;;;;;;;;;;4967941;28;20293;-82
2021/09/02 05:22:15;;;;;;;12.67;5.93;;;;;;;;;;4975237;28;20344;-82
2021/09/02 05:24:42;;;;;;;16.20;7.40;;;;;;;;;;4975482;28;20316;-82
2021/09/02 05:27:10;;;;;;;16.20;6.57;;;;;;;;;;4974619;28;20763;-82
2021/09/02 05:29:38;;;;;;;16.23;6.80;;;;;;;;;;4983559;28;20300;-82
2021/09/02 05:32:05;;;;;;;13.70;6.27;;;;;;;;;;4984586;28;20292;-82
2021/09/02 05:34:32;;;;;;;15.93;5.87;;;;;;;;;;4982254;28;20224;-83
2021/09/02 05:36:59;;;;;;;10.37;5.50;;;;;;;;;;4983743;28;20280;-83
2021/09/02 05:39:27;;;;;;;9.57;4.87;;;;;;;;;;4982037;28;20680;-83
2021/09/02 05:41:54;;;;;;;15.13;4.90;;;;;;;;;;4984339;28;20204;-83
2021/09/02 05:44:22;;;;;;;8.87;4.73;;;;;;;;;;4984424;28;20312;-83
2021/09/02 05:46:50;;;;;;;12.10;4.63;;;;;;;;;;4982713;28;20293;-83
2021/09/02 05:49:18;;;;;;;11.33;4.20;;;;;;;;;;4985038;28;20201;-83
2021/09/02 05:51:45;;;;;;;13.00;4.47;;;;;;;;;;4984802;28;20215;-83
2021/09/02 05:54:12;;;;;;;13.60;4.80;;;;;;;;;;4981006;28;20201;-83
2021/09/02 05:56:39;;;;;;;15.73;5.50;;;;;;;;;;4979257;28;20292;-83
2021/09/02 05:59:06;;;;;;;11.90;5.27;;;;;;;;;;4983875;28;20360;-83
2021/09/02 06:01:35;;;;;;;13.03;5.33;;;;;;;;;;4976052;28;20209;-83
2021/09/02 06:04:02;;;;;;;17.37;5.57;;;;;;;;;;4982675;28;20332;-83
2021/09/02 06:06:29;;;;;;;15.30;5.23;;;;;;;;;;4985538;28;20228;-83
2021/09/02 06:08:56;;;;;;;10.60;5.20;;;;;;;;;;4981944;28;20217;-83
2021/09/02 06:11:23;;;;;;;13.40;4.97;;;;;;;;;;4982483;28;20563;-83
2021/09/02 06:13:50;;;;;;;12.17;4.87;;;;;;;;;;4981688;28;20201;-83
2021/09/02 06:16:18;;;;;;;17.20;5.23;;;;;;;;;;4982509;28;20284;-83
2021/09/02 06:18:48;;;;;;;18.90;6.10;;;;;;;;;;4985428;28;20205;-83
2021/09/02 06:21:15;;;;;;;10.90;4.50;;;;;;;;;;4983748;28;20678;-83
2021/09/02 06:23:42;;;;;;;15.87;5.13;;;;;;;;;;4985757;28;20285;-83
2021/09/02 06:26:09;;;;;;;11.83;5.63;;;;;;;;;;4979371;28;20216;-83
2021/09/02 06:28:37;;;;;;;21.93;5.97;;;;;;;;;;4974412;28;20218;-83
2021/09/02 06:31:04;;;;;;;20.67;6.07;;;;;;;;;;4971379;28;20253;-83
2021/09/02 06:33:31;;;;;;;15.03;6.07;;;;;;;;;;4973966;28;20242;-83
2021/09/02 06:36:00;;;;;;;18.87;5.67;;;;;;;;;;4973522;28;20270;-84
2021/09/02 06:38:27;;;;;;;17.70;5.93;;;;;;;;;;4972162;28;20226;-83
2021/09/02 06:40:54;;;;;;;13.03;5.90;;;;;;;;;;4981692;28;20289;-83
2021/09/02 06:43:21;;;;;;;10.87;5.50;;;;;;;;;;4982408;28;20655;-85
2021/09/02 06:45:48;;;;;;;10.17;5.37;;;;;;;;;;4990448;28;20252;-85
2021/09/02 06:48:16;;;;;;;9.47;5.10;;;;;;;;;;4987157;28;20209;-85
2021/09/02 06:50:43;;;;;;;12.37;5.70;;;;;;;;;;4986316;28;20661;-85
2021/09/02 06:53:12;;;;;;;13.50;5.43;;;;;;;;;;4986666;28;20210;-85
2021/09/02 06:55:39;;;;;;;13.97;4.60;;;;;;;;;;4991157;28;20213;-85
2021/09/02 06:58:06;;;;;;;12.23;4.70;;;;;;;;;;4973132;28;20786;-85
2021/09/02 07:00:34;;;;;;;16.57;5.30;;;;;;;;;;4977859;28;20237;-85
2021/09/02 07:03:01;;;;;;;11.07;5.20;;;;;;;;;;4968290;28;20235;-86
2021/09/02 07:05:28;;;;;;;15.50;5.10;;;;;;;;;;4969971;28;20312;-85
2021/09/02 07:07:55;;;;;;;11.87;5.27;;;;;;;;;;4977004;28;20260;-84
2021/09/02 07:10:24;;;;;;;10.07;5.27;;;;;;;;;;4974630;28;20202;-85
2021/09/02 07:12:51;;;;;;;10.90;5.30;;;;;;;;;;4967370;28;20694;-85
2021/09/02 07:15:18;;;;;;;19.47;5.40;;;;;;;;;;4970729;28;20222;-86
2021/09/02 07:17:45;;;;;;;12.33;6.03;;;;;;;;;;4978996;28;20736;-85
2021/09/02 07:20:13;;;;;;;11.23;5.47;;;;;;;;;;4978730;28;20321;-86
2021/09/02 07:22:40;;;;;;;10.83;4.40;;;;;;;;;;4971638;28;20245;-84
2021/09/02 07:25:08;;;;;;;10.07;5.23;;;;;;;;;;4968478;28;20657;-82
2021/09/02 07:27:37;;;;;;;12.33;6.17;;;;;;;;;;4974647;28;20293;-85
2021/09/02 07:30:04;;;;;;;11.63;6.83;;;;;;;;;;4971431;28;20551;-85
2021/09/02 07:32:32;;;;;;;13.17;6.23;;;;;;;;;;4970758;28;20604;-85
2021/09/02 07:34:59;;;;;;;13.80;6.03;;;;;;;;;;4960115;28;20257;-84
2021/09/02 07:37:26;;;;;;;12.80;6.20;;;;;;;;;;4964241;28;20221;-85
2021/09/02 07:39:53;;;;;;;12.13;5.10;;;;;;;;;;4979923;28;20197;-85
2021/09/02 07:42:20;;;;;;;10.60;5.20;;;;;;;;;;4997887;28;20198;-86
2021/09/02 07:44:49;;;;;;;11.67;5.30;;;;;;;;;;4990423;28;20651;-84
2021/09/02 07:47:16;;;;;;;9.33;5.73;;;;;;;;;;4987035;28;20228;-85
2021/09/02 07:49:43;;;;;;;7.97;4.13;;;;;;;;;;4989355;28;20262;-85
2021/09/02 07:52:11;;;;;;;14.83;5.40;;;;;;;;;;4982168;28;20203;-84
2021/09/02 07:54:38;;;;;;;8.03;4.53;;;;;;;;;;4985168;28;20334;-85
2021/09/02 07:57:05;;;;;;;10.00;5.37;;;;;;;;;;4976372;28;20275;-85
2021/09/02 07:59:32;;;;;;;16.83;5.40;;;;;;;;;;4975485;28;20210;-85
2021/09/02 08:02:01;;;;;;;13.83;5.40;;;;;;;;;;4974804;28;20216;-85
2021/09/02 08:04:28;;;;;;;11.30;5.37;;;;;;;;;;4974954;28;20224;-85
2021/09/02 08:06:55;;;;;;;11.90;4.63;;;;;;;;;;4972656;28;20297;-85
2021/09/02 08:09:22;;;;;;;9.07;4.80;;;;;;;;;;4964492;28;20295;-85
2021/09/02 08:11:50;;;;;;;14.77;5.80;;;;;;;;;;4970443;28;20295;-85
2021/09/02 08:14:17;;;;;;;13.80;5.77;;;;;;;;;;4967628;28;20593;-85
2021/09/02 08:16:44;;;;;;;12.80;5.87;;;;;;;;;;4969868;28;20225;-85
2021/09/02 08:19:13;;;;;;;9.27;4.17;;;;;;;;;;4975686;28;20257;-85
2021/09/02 08:21:40;;;;;;;11.93;5.40;;;;;;;;;;4975420;28;20241;-85
2021/09/02 08:24:08;;;;;;;10.87;4.47;;;;;;;;;;4978432;28;20644;-85
2021/09/02 08:26:35;;;;;;;8.53;3.97;;;;;;;;;;4979947;28;20229;-85
2021/09/02 08:29:03;;;;;;;10.55;4.93;;;;;;;;;;4985021;28;20280;-85
2021/09/02 08:31:30;;;;;;;13.65;4.35;;;;;;;;;;4981811;28;20260;-85
2021/09/02 08:33:58;;;;;;;11.53;4.90;;;;;;;;;;4982150;28;20210;-85
2021/09/02 08:36:26;;;;;;;10.73;4.85;;;;;;;;;;4987150;28;20233;-85
2021/09/02 08:38:54;;;;;;;13.17;4.53;;;;;;;;;;4977226;28;20415;-85
2021/09/02 08:41:21;;;;;;;12.17;4.40;;;;;;;;;;4977545;28;20261;-85
2021/09/02 08:43:48;;;;;;;13.07;4.73;;;;;;;;;;4981941;28;20629;-85
2021/09/02 08:46:16;;;;;;;6.97;4.20;;;;;;;;;;4983829;28;20284;-86
2021/09/02 08:48:46;;;;;;;8.53;4.30;;;;;;;;;;4987449;28;20213;-86
2021/09/02 08:51:13;;;;;;;13.60;5.10;;;;;;;;;;4981894;28;20209;-86
2021/09/02 08:53:43;;;;;;;12.30;4.73;;;;;;;;;;4983980;28;20210;-86
2021/09/02 08:56:10;;;;;;;10.20;4.70;;;;;;;;;;4978652;28;20221;-85
2021/09/02 08:58:37;;;;;;;12.67;4.67;;;;;;;;;;4985571;28;20200;-85
2021/09/02 09:01:06;;;;;;;11.23;4.73;;;;;;;;;;4991962;28;20207;-85
2021/09/02 09:03:34;;;;;;;10.37;5.37;;;;;;;;;;5000606;28;20221;-84
2021/09/02 09:06:06;;;;;;;12.93;5.10;;;;;;;;;;4992208;28;20233;-85
2021/09/02 09:08:35;;;;;;;10.83;5.63;;;;;;;;;;4994903;28;20219;-84
2021/09/02 09:11:17;;;;;;;13.30;4.70;;;;;;;;;;4992127;28;20201;-84
2021/09/02 09:13:44;;;;;;;10.27;5.00;;;;;;;;;;4995641;28;20243;-84
2021/09/02 09:16:12;;;;;;;16.10;5.83;;;;;;;;;;4996930;28;20589;-84
2021/09/02 09:18:43;;;;;;;10.90;5.60;;;;;;;;;;4995358;28;20240;-84
2021/09/02 09:21:11;;;;;;;13.87;5.53;;;;;;;;;;4991609;28;20239;-85
2021/09/02 09:23:51;;;;;;;9.63;5.03;;;;;;;;;;4995292;28;20252;-85
2021/09/02 09:26:20;;;;;;;10.03;5.37;;;;;;;;;;4984195;28;20234;-85
2021/09/02 09:28:47;;;;;;;17.33;5.50;;;;;;;;;;4998540;28;20225;-85
2021/09/02 09:31:32;;;;;;;13.40;5.50;;;;;;;;;;4990399;28;20205;-85
2021/09/02 09:34:01;;;;;;;23.10;5.90;;;;;;;;;;4992457;28;20213;-85
2021/09/02 09:36:30;;;;;;;12.77;5.67;;;;;;;;;;4998118;28;20230;-84
2021/09/02 09:39:05;;;;;;;10.80;5.17;;;;;;;;;;4992081;28;20716;-84
2021/09/02 09:41:36;;;;;;;8.63;5.03;;;;;;;;;;4991659;28;20755;-83
2021/09/02 09:44:15;;;;;;;10.07;5.10;;;;;;;;;;4995130;28;20205;-84
2021/09/02 09:46:42;;;;;;;10.73;5.10;;;;;;;;;;4986022;28;20258;-84
2021/09/02 09:49:10;;;;;;;12.07;5.73;;;;;;;;;;4986802;28;20226;-84
2021/09/02 09:51:37;;;;;;;10.23;5.33;;;;;;;;;;4991559;28;20205;-84
2021/09/02 09:54:04;;;;;;;12.27;5.80;;;;;;;;;;4991110;28;20202;-84
2021/09/02 09:56:32;;;;;;;11.57;5.30;;;;;;;;;;4993025;28;20233;-85
2021/09/02 09:59:02;;;;;;;10.03;4.57;;;;;;;;;;4993436;28;20209;-86
2021/09/02 10:01:30;;;;;;;8.03;4.63;;;;;;;;;;4995263;28;20284;-84
2021/09/02 10:03:57;;;;;;;13.47;5.30;;;;;;;;;;4989620;28;20213;-85
2021/09/02 10:06:25;;;;;;;12.50;5.07;;;;;;;;;;4993240;28;20261;-85
2021/09/02 10:08:52;;;;;;;11.30;5.43;;;;;;;;;;4987033;28;20245;-84
2021/09/02 10:11:21;;;;;;;16.23;5.23;;;;;;;;;;4982799;28;20212;-85
2021/09/02 10:13:48;;;;;;;9.57;4.53;;;;;;;;;;4985003;28;20233;-84
2021/09/02 10:16:17;;;;;;;9.87;5.20;;;;;;;;;;4986389;28;20230;-84
2021/09/02 10:18:45;;;;;;;8.13;4.70;;;;;;;;;;4989153;28;20213;-84
2021/09/02 10:21:13;;;;;;;11.10;4.70;;;;;;;;;;4993855;28;20669;-86
2021/09/02 10:23:40;;;;;;;9.73;4.83;;;;;;;;;;4994278;28;20276;-85
2021/09/02 10:26:09;;;;;;;9.93;5.13;;;;;;;;;;4992899;28;20237;-85
2021/09/02 10:28:37;;;;;;;8.93;4.57;;;;;;;;;;4992184;28;20683;-85
2021/09/02 10:31:06;;;;;;;8.80;4.70;;;;;;;;;;4995502;28;20452;-85
2021/09/02 10:33:40;;;;;;;11.40;5.27;;;;;;;;;;4993825;28;20240;-86
2021/09/02 10:36:26;;;;;;;15.37;4.90;;;;;;;;;;4994718;28;20233;-86
2021/09/02 10:38:55;;;;;;;8.30;4.43;;;;;;;;;;4994063;28;20677;-85
2021/09/02 10:41:39;;;;;;;6.67;4.17;;;;;;;;;;4991414;28;20245;-85
2021/09/02 10:44:07;;;;;;;9.13;4.20;;;;;;;;;;4992500;28;20240;-85
2021/09/02 10:46:36;;;;;;;11.60;4.60;;;;;;;;;;4992015;28;20244;-85
2021/09/02 10:49:18;;;;;;;12.13;4.83;;;;;;;;;;4991850;28;20277;-85
2021/09/02 10:51:46;;;;;;;7.50;4.50;;;;;;;;;;4992827;28;20213;-85
2021/09/02 10:54:15;;;;;;;7.57;4.43;;;;;;;;;;4992741;28;20209;-85
2021/09/02 10:57:00;;;;;;;9.17;4.57;;;;;;;;;;4993152;28;20233;-85
2021/09/02 10:59:37;;;;;;;9.10;4.67;;;;;;;;;;4985106;28;20208;-85
2021/09/02 11:02:04;;;;;;;10.27;4.60;;;;;;;;;;4991165;28;20292;-85
2021/09/02 11:04:33;;;;;;;8.07;4.40;;;;;;;;;;4990645;28;20213;-85
2021/09/02 11:07:00;;;;;;;8.97;4.33;;;;;;;;;;4986541;28;20233;-85
2021/09/02 11:09:30;;;;;;;8.80;4.43;;;;;;;;;;4988366;28;20773;-84
2021/09/02 11:11:58;;;;;;;6.93;4.13;;;;;;;;;;4986520;28;20350;-85
2021/09/02 11:14:25;;;;;;;10.30;4.20;;;;;;;;;;4983222;28;20201;-85
2021/09/02 11:16:53;;;;;;;6.23;4.20;;;;;;;;;;4987829;28;20233;-85
2021/09/02 11:19:37;;;;;;;6.70;3.97;;;;;;;;;;4990006;28;20213;-85
2021/09/02 11:22:11;;;;;;;7.70;4.20;;;;;;;;;;4989789;28;20637;-85
2021/09/02 11:24:39;;;;;;;7.67;4.23;;;;;;;;;;4984226;28;20774;-85
2021/09/02 11:27:07;;;;;;;9.57;4.60;;;;;;;;;;4983184;28;20229;-83
2021/09/02 11:29:34;;;;;;;6.07;4.00;;;;;;;;;;4984917;28;20201;-84
2021/09/02 11:32:02;;;;;;;8.30;4.30;;;;;;;;;;4988304;28;20689;-84
2021/09/02 11:34:29;;;;;;;8.30;4.47;;;;;;;;;;4986187;28;20245;-85
2021/09/02 11:36:58;;;;;;;10.00;4.53;;;;;;;;;;4985418;28;20253;-84
2021/09/02 11:39:27;;;;;;;8.13;4.43;;;;;;;;;;4976530;28;20202;-84
2021/09/02 11:41:59;;;;;;;9.93;3.97;;;;;;;;;;4977856;28;20290;-84
2021/09/02 11:44:27;;;;;;;5.93;3.53;;;;;;;;;;4974937;28;20220;-84
2021/09/02 11:46:55;;;;;;;9.47;3.87;;;;;;;;;;4976636;28;20237;-84
2021/09/02 11:49:22;;;;;;;8.37;4.10;;;;;;;;;;4980208;28;20272;-83
2021/09/02 11:51:56;;;;;;;7.10;3.63;;;;;;;;;;4976529;28;20293;-84
2021/09/02 11:54:24;;;;;;;8.67;4.00;;;;;;;;;;4974103;28;20670;-84
2021/09/02 11:56:52;;;;;;;9.67;3.87;;;;;;;;;;4980337;28;20261;-83
2021/09/02 11:59:19;;;;;;;8.97;4.10;;;;;;;;;;4980016;28;20275;-83
2021/09/02 12:01:47;;;;;;;10.10;4.63;;;;;;;;;;4977511;28;20213;-83
2021/09/02 12:04:21;;;;;;;9.67;4.73;;;;;;;;;;4977483;28;20216;-83
2021/09/02 12:06:49;;;;;;;6.87;3.70;;;;;;;;;;4978280;28;20663;-84
2021/09/02 12:09:19;;;;;;;7.53;4.00;;;;;;;;;;4978467;28;20250;-83
2021/09/02 12:11:48;;;;;;;8.63;3.80;;;;;;;;;;4976539;28;20701;-83
2021/09/02 12:14:16;;;;;;;7.67;3.80;;;;;;;;;;4975832;28;20214;-83
2021/09/02 12:16:43;;;;;;;6.03;3.90;;;;;;;;;;4978422;28;20679;-83
2021/09/02 12:19:11;;;;;;;7.73;3.47;;;;;;;;;;4982625;28;20230;-84
2021/09/02 12:21:39;;;;;;;6.87;3.90;;;;;;;;;;4981383;28;20201;-84
2021/09/02 12:24:10;;;;;;;6.57;3.83;;;;;;;;;;4983281;28;20692;-83
2021/09/02 12:26:45;;;;;;;10.43;4.20;;;;;;;;;;4979819;28;20241;-83
2021/09/02 12:29:15;;;;;;;5.53;3.77;;;;;;;;;;4974852;28;20213;-84
2021/09/02 12:31:42;;;;;;;9.33;3.87;;;;;;;;;;4983297;28;20205;-84
2021/09/02 12:34:10;;;;;;;5.00;3.57;;;;;;;;;;4987039;28;20221;-84
2021/09/02 12:36:38;;;;;;;10.03;4.23;;;;;;;;;;4989211;28;20264;-85
2021/09/02 12:39:12;;;;;;;8.17;3.90;;;;;;;;;;4992546;28;20236;-84
2021/09/02 12:41:41;;;;;;;8.50;4.00;;;;;;;;;;4990490;28;20214;-85
2021/09/02 12:44:10;;;;;;;6.13;3.70;;;;;;;;;;4984612;28;20228;-86
2021/09/02 12:46:48;;;;;;;7.83;3.83;;;;;;;;;;4989075;28;20228;-83
2021/09/02 12:49:15;;;;;;;5.63;3.47;;;;;;;;;;4983064;28;20515;-84
2021/09/02 12:51:43;;;;;;;6.87;3.77;;;;;;;;;;4986502;28;20631;-84
2021/09/02 12:54:10;;;;;;;6.50;3.20;;;;;;;;;;4983560;28;20217;-84
2021/09/02 12:56:38;;;;;;;8.00;3.50;;;;;;;;;;4982312;28;20487;-83
2021/09/02 12:59:05;;;;;;;7.23;3.37;;;;;;;;;;4985606;28;20217;-83
2021/09/02 13:01:32;;;;;;;10.13;3.47;;;;;;;;;;4983768;28;20228;-83
2021/09/02 13:04:01;;;;;;;6.53;3.63;;;;;;;;;;4985592;28;20227;-83
2021/09/02 13:06:30;;;;;;;9.70;3.37;;;;;;;;;;4985787;28;20229;-83
2021/09/02 13:08:59;;;;;;;6.37;3.57;;;;;;;;;;4982809;28;20214;-84
2021/09/02 13:11:26;;;;;;;5.70;3.30;;;;;;;;;;4987347;28;20705;-84
2021/09/02 13:13:53;;;;;;;7.23;3.47;;;;;;;;;;4984460;28;20236;-84
2021/09/02 13:16:20;;;;;;;5.40;3.23;;;;;;;;;;4988829;28;20235;-84
2021/09/02 13:18:48;;;;;;;6.07;3.03;;;;;;;;;;4986022;28;20300;-83
2021/09/02 13:21:17;;;;;;;6.03;3.30;;;;;;;;;;4983517;28;20241;-84
2021/09/02 13:23:44;;;;;;;6.07;3.27;;;;;;;;;;4982727;28;20237;-84
2021/09/02 13:26:13;;;;;;;7.57;3.67;;;;;;;;;;4985351;28;20677;-84
2021/09/02 13:28:40;;;;;;;6.03;3.67;;;;;;;;;;4982526;28;20399;-83
2021/09/02 13:31:07;;;;;;;6.37;3.70;;;;;;;;;;4982331;28;20233;-84
2021/09/02 13:33:34;;;;;;;9.70;3.43;;;;;;;;;;4992233;28;20668;-84
2021/09/02 13:36:02;;;;;;;6.20;3.33;;;;;;;;;;4988097;28;20225;-83
2021/09/02 13:38:30;;;;;;;9.87;3.63;;;;;;;;;;4989780;28;20220;-83
2021/09/02 13:40:57;;;;;;;8.20;3.80;;;;;;;;;;4991625;28;20241;-83
2021/09/02 13:43:25;;;;;;;7.00;3.63;;;;;;;;;;4982616;28;20685;-83
2021/09/02 13:45:52;;;;;;;6.10;3.30;;;;;;;;;;4984107;28;20282;-83
2021/09/02 13:48:19;;;;;;;6.33;3.83;;;;;;;;;;4983187;28;20761;-83
2021/09/02 13:50:46;;;;;;;6.00;3.37;;;;;;;;;;4985999;28;20213;-84
2021/09/02 13:53:13;;;;;;;10.03;3.57;;;;;;;;;;4981058;28;20297;-83
2021/09/02 13:55:42;;;;;;;7.53;3.40;;;;;;;;;;4981327;28;20234;-84
2021/09/02 13:58:09;;;;;;;5.53;3.20;;;;;;;;;;4984157;28;20229;-83
2021/09/02 14:00:37;;;;;;;6.07;3.57;;;;;;;;;;4982354;28;20220;-84
2021/09/02 14:03:04;;;;;;;9.93;3.57;;;;;;;;;;4984729;28;20273;-83
2021/09/02 14:05:31;;;;;;;6.87;3.50;;;;;;;;;;4979451;28;20692;-83
2021/09/02 14:07:58;;;;;;;6.77;3.40;;;;;;;;;;4983502;28;20288;-83
2021/09/02 14:10:25;;;;;;;6.53;3.50;;;;;;;;;;4983902;28;20471;-84
2021/09/02 14:12:54;;;;;;;9.10;3.60;;;;;;;;;;4986434;28;20264;-84
2021/09/02 14:15:21;;;;;;;8.30;3.90;;;;;;;;;;4987379;28;20288;-84
2021/09/02 14:17:48;;;;;;;7.07;3.80;;;;;;;;;;4983230;28;20218;-85
2021/09/02 14:20:16;;;;;;;9.93;4.03;;;;;;;;;;4984270;28;20228;-84
2021/09/02 14:22:45;;;;;;;9.07;4.00;;;;;;;;;;4990743;28;20213;-84
2021/09/02 14:25:13;;;;;;;6.80;3.60;;;;;;;;;;4981959;28;20236;-84
2021/09/02 14:27:40;;;;;;;7.97;3.70;;;;;;;;;;4988547;28;20268;-85
2021/09/02 14:30:10;;;;;;;6.73;3.37;;;;;;;;;;4988702;28;20209;-83
2021/09/02 14:32:37;;;;;;;6.33;3.60;;;;;;;;;;4988799;28;20237;-84
2021/09/02 14:35:04;;;;;;;12.97;3.90;;;;;;;;;;4986459;28;20259;-84
2021/09/02 14:37:32;;;;;;;7.83;3.60;;;;;;;;;;4990518;28;20234;-84
2021/09/02 14:39:59;;;;;;;9.53;4.10;;;;;;;;;;4980121;28;20248;-84
2021/09/02 14:42:26;;;;;;;10.90;3.80;;;;;;;;;;4979694;28;20206;-83